Skip to main content

NOAA/GLERL Met Station at Michigan City, IN

Previous 5 days (top of hour only)
See also Previous 3 Hours (2 minute increments)
Jump down to Data
Switch to [English][Metric]
Zoom: Click and drag, Pan: shift-click and drag, Unzoom: double-click, Unzoom All





Note: Speed = mean wind during 2-minute period at top of hour,
Gust = max wind during 2-minute period at top of hour,
Peak = max wind during entire hour.
• See also 5-day windrose plot


NOAA/GLERL Met Station at Michigan City, IN

Previous 5 days (top of hour only)
See also Previous 3 Hours (2 minute increments)
Jump up to Graphs
Switch to [English][Metric]
                  Wind  Wind  Wind   Air   Dew   Rel     Sta   PAR
                   Spd   Gst   Dir  Temp    Pt   Hum    Pres uE/m2/
YYYY-MM-DD   CST   kts   kts   deg     F     F     %   in Hg   sec
2021-03-01 00:00 -99.0 -99.0   -99   0.0   0.0   0.0    0.00     0
2021-02-28 13:00  12.2  14.0   202  51.8  51.5  99.0    0.00   910
2021-02-28 12:00  10.7  12.1   191  48.9  48.5  98.6    0.00   437
2021-02-28 11:00   9.5  10.9   210  48.0  46.5  94.5    0.00   192
2021-02-28 10:00  10.9  13.8   176  48.9  47.2  93.8    0.00   631
2021-02-28 09:00  10.9  12.8   154  46.9  46.4  98.1    0.00   436
2021-02-28 08:00   9.1  10.7   146  43.7  43.5  99.1    0.00   165
2021-02-28 07:00  10.1  12.1   144  42.8  42.0  97.0    0.00     0
2021-02-28 06:00   7.0   8.9   114  42.6  40.9  93.5    0.00     0
2021-02-28 05:00  10.5  12.8   132  42.3  39.9  91.4    0.00     0
2021-02-28 04:00  10.1  13.2   132  43.3  39.5  86.0    0.00     0
2021-02-28 03:00   7.2   9.3   108  42.4  38.5  85.7    0.00     0
2021-02-28 02:00   8.9  12.1   127  43.0  38.7  84.6    0.00     0
2021-02-28 01:00  10.1  13.0   126  42.8  38.1  83.3    0.00     0
2021-02-28 00:00   8.0   9.9   121  42.3  37.5  83.1    0.00     0
2021-02-27 23:00   8.7  10.1   129  43.5  37.7  79.6    0.00     0
2021-02-27 22:00   8.9  11.7   130  42.6  36.3  78.0    0.00     0
2021-02-27 21:00  10.9  14.2   135  43.2  37.1  78.8    0.00     0
2021-02-27 20:00   8.9  10.9   134  43.0  37.0  79.3    0.00     0
2021-02-27 19:00   8.6   9.9   136  43.0  36.8  78.5    0.00     0
2021-02-27 18:00   9.7  12.1   146  43.5  37.8  80.0    0.00     0
2021-02-27 17:00   8.0   8.7   158  45.3  37.7  74.5    0.00    82
2021-02-27 16:00  10.7  12.2   154  44.8  37.2  74.4    0.00   411
2021-02-27 15:00   8.2   9.3   162  43.7  36.7  76.1    0.00   740
2021-02-27 14:00   9.1  10.3   158  42.8  36.1  77.0    0.00   905
2021-02-27 13:00   8.6  10.3   159  41.7  35.7  78.9    0.00  1069
2021-02-27 12:00   7.8   9.5   153  40.8  35.4  80.9    0.00  1152
2021-02-27 11:00  10.3  11.3   161  39.4  35.1  84.5    0.00  1070
2021-02-27 10:00   7.8  10.1   189  40.8  35.0  79.6    0.00   933
2021-02-27 09:00   6.8   8.0   187  37.9  36.1  93.1    0.00   815
2021-02-27 08:00   8.2  10.7   185  35.8  34.7  95.8    0.00   489
2021-02-27 07:00   9.7  11.1   190  35.8  35.3  98.0    0.00    82
2021-02-27 06:00   9.9  12.2   199  36.0  35.0  96.4    0.00     0
2021-02-27 05:00   8.2   8.7   206  37.0  35.7  95.0    0.00     0
2021-02-27 04:00   9.5  10.3   216  36.9  35.7  95.5    0.00     0
2021-02-27 03:00   9.3  10.7   208  36.7  35.5  95.5    0.00     0
2021-02-27 02:00   8.7   9.7   202  35.1  34.0  95.8    0.00     0
2021-02-27 01:00   7.2   8.7   172  35.1  33.7  94.6    0.00     0
2021-02-27 00:00   5.8   7.8   163  36.0  32.3  86.5    0.00     0
2021-02-26 23:00   7.2   8.7   143  36.3  31.2  81.5    0.00     0
2021-02-26 22:00   9.7  12.1   147  37.0  29.2  73.1    0.00     0
2021-02-26 21:00  12.8  16.7   128  38.1  26.1  61.7    0.00     0
2021-02-26 20:00  14.6  18.1   130  38.3  24.2  56.6    0.00     0
2021-02-26 19:00  15.7  20.2   132  38.5  23.4  54.2    0.00     0
2021-02-26 18:00  14.0  18.9   136  38.8  22.9  52.4    0.00     0
2021-02-26 17:00   9.7  12.8   118  39.7  21.9  48.5    0.00    82
2021-02-26 16:00  13.2  15.9   116  41.0  19.9  42.4    0.00   437
2021-02-26 15:00  13.8  15.2   119  41.2  17.5  38.1    0.00   717
2021-02-26 14:00   9.3  10.5   143  40.6  18.1  39.8    0.00  1027
2021-02-26 13:00  17.7  21.0   164  39.0  15.8  38.4    0.00  1070
2021-02-26 12:00  15.9  21.6   154  38.1  13.4  36.0    0.00  1152
2021-02-26 11:00  13.0  17.1   141  36.3  13.9  39.5    0.00  1070
2021-02-26 10:00  13.4  17.3   159  34.9  13.5  41.1    0.00   906
2021-02-26 09:00   7.4   8.4   137  32.0  20.7  62.7    0.00   781
2021-02-26 08:00   7.2   8.7   154  28.2  20.5  72.4    0.00   168
2021-02-26 07:00   7.8   8.7   150  27.9  20.7  74.3    0.00     0
2021-02-26 06:00   9.7  10.9   137  26.6  21.4  80.6    0.00     0
2021-02-26 05:00   9.3  10.1   138  26.8  22.1  82.2    0.00     0
2021-02-26 04:00   9.3   9.5   140  27.1  21.6  79.3    0.00     0
2021-02-26 03:00   9.7  10.5   148  28.0  22.1  78.2    0.00     0
2021-02-26 02:00   5.6   7.0   146  28.4  21.6  75.4    0.00     0
2021-02-26 01:00   5.8   6.6   156  30.0  22.3  72.7    0.00     0
2021-02-26 00:00   4.3   5.2   170  31.6  22.6  69.0    0.00     0
2021-02-25 23:00   5.4   6.4   188  31.6  23.1  70.3    0.00     0
2021-02-25 22:00   6.6   7.2   206  31.3  23.0  71.2    0.00     0
2021-02-25 21:00   6.4   7.4   202  33.1  22.8  65.5    0.00     0
2021-02-25 20:00   7.6   8.2   211  34.0  23.6  65.4    0.00     0
2021-02-25 19:00   5.6   7.2   180  35.6  22.0  57.3    0.00     0
2021-02-25 18:00   2.7   3.1   189  35.4  19.3  51.5    0.00     0
2021-02-25 17:00   1.4   1.7   174  34.7  19.6  53.7    0.00    82
2021-02-25 16:00   1.2   1.2   245  36.0  21.9  56.2    0.00   329
2021-02-25 15:00   1.7   1.9   259  34.5  24.3  66.0    0.00   602
2021-02-25 14:00   3.3   3.9   282  36.9  25.7  63.6    0.00   905
2021-02-25 13:00  11.1  12.2   288  35.4  25.5  66.8    0.00   874
2021-02-25 12:00  12.4  13.8   258  33.8  26.9  75.6    0.00  1130
2021-02-25 11:00  15.9  17.3   264  33.3  26.7  76.5    0.00  1070
2021-02-25 10:00   9.3   9.5   248  35.2  25.3  66.7    0.00   906
2021-02-25 09:00   8.4   9.1   222  33.1  25.5  73.5    0.00   527
2021-02-25 08:00   6.4   7.4   221  30.0  26.3  85.8    0.00   316
2021-02-25 07:00   5.8   6.4   190  28.6  25.3  87.3    0.00   165
2021-02-25 06:00   5.8   6.6   197  29.3  26.1  87.6    0.00     0
2021-02-25 05:00   4.9   5.4   189  30.2  27.8  90.6    0.00     0
2021-02-25 04:00   6.4   6.8   231  32.2  29.1  88.4    0.00     0
2021-02-25 03:00   5.1   5.6   211  31.5  29.0  90.6    0.00     0
2021-02-25 02:00   7.6   8.0   252  33.3  30.4  89.1    0.00     0
2021-02-25 01:00   6.0   6.2   227  32.7  31.1  93.7    0.00     0
2021-02-25 00:00   6.8   7.0   288  33.4  31.3  91.6    0.00     0
2021-02-24 23:00   8.6   8.9   289  33.1  31.5  94.0    0.00     0
2021-02-24 22:00   8.7   8.9   275  33.4  31.3  91.6    0.00     0
2021-02-24 21:00   5.2   5.2   330  35.1  31.5  86.7    0.00     0
2021-02-24 20:00   0.6   1.4   253  34.9  31.3  86.7    0.00     0
2021-02-24 19:00   5.4   6.0   337  34.9  31.1  86.0    0.00     0
2021-02-24 18:00  10.3  10.7     0  35.4  29.7  79.3    0.00     0
2021-02-24 17:00  16.3  17.7   353  35.8  29.9  78.8    0.00    27
2021-02-24 16:00  12.2  13.2   315  36.3  32.6  86.2    0.00    82
2021-02-24 15:00  12.6  13.4   328  37.0  31.9  81.6    0.00   374
2021-02-24 14:00  15.9  17.9   315  38.3  31.6  76.6    0.00   401
2021-02-24 13:00  11.5  12.1   298  40.3  32.3  73.0    0.00  1162
2021-02-24 12:00   9.7  10.5   269  37.0  32.6  83.9    0.00   984
2021-02-24 11:00  14.6  15.2   248  37.6  33.0  83.4    0.00  1171
2021-02-24 10:00  15.9  16.5   247  37.9  33.4  83.4    0.00   568
2021-02-24 09:00  13.4  14.4   239  39.0  34.0  82.1    0.00   412
2021-02-24 08:00  17.9  18.9   229  41.4  34.5  76.3    0.00   648
2021-02-24 07:00  18.9  21.8   232  43.5  34.7  70.7    0.00    82
2021-02-24 06:00  17.5  20.4   207  44.6  34.4  67.2    0.00     0
2021-02-24 05:00  16.3  20.4   195  45.3  33.5  63.0    0.00     0
2021-02-24 04:00  19.8  25.5   174  44.6  32.5  62.2    0.00     0
2021-02-24 03:00  19.8  25.9   178  45.3  31.9  59.1    0.00     0
2021-02-24 02:00  21.0  24.9   178  43.9  31.0  60.1    0.00     0
2021-02-24 01:00  21.4  25.9   174  43.5  31.0  61.1    0.00     0
2021-02-24 00:00  16.5  19.8   175  42.1  31.6  66.0    0.00     0
2021-02-23 23:00  11.7  14.8   191  41.9  33.1  70.6    0.00     0
2021-02-23 22:00  12.1  13.8   155  39.6  32.4  75.2    0.00     0
2021-02-23 21:00   9.5  10.9   148  39.4  32.2  75.3    0.00     0
2021-02-23 20:00   8.9  10.9   151  40.3  31.8  71.5    0.00     0
2021-02-23 19:00  10.1  10.9   192  41.2  30.6  65.7    0.00     0
2021-02-23 18:00  11.7  13.4   200  41.4  30.7  65.6    0.00     0